Washington, District of Columbia
Traffic Map
Current Weather Conditions
Washington, District of Columbia
Overcast Haze
Overcast

Feels Like: 4°
Wind Chill: Ceiling: 500
Heat Index: Visibility: 3mi
Dew Point: Wind: 9mph
Humidity: 100% Direction: 160° (SSE)
Pressure: 30.37in Gusts: 0mph
Raw Report DataKDCA 191952Z 16008KT 3SM BR OVC005 07/07 A3037 RMK AO2 SLP285 T00670067
Traffic Incident Summary
Active as of:
Severity:
Category:
InformationThere was an issue retrieving the traffic information for this location. Please try a different location or try again shortly.
Advertisements